Time;durP1;ratioP1;P1;durP2;ratioP2;P2;SDS_P1;SDS_P2;PMS_P1;PMS_P2;Temp;Humidity;BMP_temperature;BMP_pressure;BME280_temperature;BME280_humidity;BME280_pressure;Samples;Min_cycle;Max_cycle;Signal;HPM_P1;HPM_P2
2022/09/08 00:00:30;;;;;;;7.72;1.80;;;23.20;63.30;;;;;;5044196;28;20041;-58
2022/09/08 00:02:56;;;;;;;6.75;1.65;;;23.20;63.30;;;;;;5043729;28;20028;-58
2022/09/08 00:05:23;;;;;;;5.90;1.58;;;23.20;63.30;;;;;;5025949;28;20051;-58
2022/09/08 00:07:51;;;;;;;5.10;1.42;;;23.20;63.40;;;;;;5008413;28;20025;-58
2022/09/08 00:10:17;;;;;;;7.45;1.63;;;23.20;63.40;;;;;;5044446;28;20062;-58
2022/09/08 00:12:44;;;;;;;3.97;1.27;;;23.20;63.50;;;;;;5043803;28;20125;-58
2022/09/08 00:15:10;;;;;;;5.03;1.60;;;23.10;63.40;;;;;;5026262;28;20040;-58
2022/09/08 00:17:36;;;;;;;7.65;1.60;;;23.20;63.50;;;;;;5027760;28;20033;-58
2022/09/08 00:20:02;;;;;;;5.55;1.67;;;23.10;63.50;;;;;;5041518;28;20059;-58
2022/09/08 00:22:28;;;;;;;5.05;1.58;;;23.20;63.60;;;;;;5044936;28;20036;-58
2022/09/08 00:24:53;;;;;;;4.15;1.30;;;23.10;63.50;;;;;;5043259;28;20033;-58
2022/09/08 00:27:19;;;;;;;7.80;1.70;;;23.10;63.50;;;;;;5043426;28;20032;-58
2022/09/08 00:29:45;;;;;;;7.05;1.70;;;23.10;63.50;;;;;;5043608;28;20048;-58
2022/09/08 00:32:10;;;;;;;6.63;1.40;;;23.10;63.60;;;;;;5044115;28;20025;-58
2022/09/08 00:34:36;;;;;;;5.90;1.55;;;23.10;63.50;;;;;;5044408;28;20051;-58
2022/09/08 00:37:02;;;;;;;4.55;1.30;;;23.10;63.60;;;;;;5043434;28;20048;-58
2022/09/08 00:39:27;;;;;;;6.60;1.50;;;23.10;63.60;;;;;;5045047;28;20120;-58
2022/09/08 00:41:55;;;;;;;6.20;1.70;;;23.10;63.60;;;;;;5044718;28;20021;-58
2022/09/08 00:44:40;;;;;;;5.95;1.38;;;23.00;63.60;;;;;;5043702;28;20032;-58
2022/09/08 00:47:36;;;;;;;5.35;1.40;;;23.10;63.60;;;;;;5043810;28;20017;-58
2022/09/08 00:50:06;;;;;;;6.40;1.67;;;23.10;63.70;;;;;;5031160;28;20064;-58
2022/09/08 00:52:50;;;;;;;5.55;1.30;;;23.00;63.70;;;;;;5025752;28;20029;-58
2022/09/08 00:55:16;;;;;;;4.80;1.58;;;23.00;63.70;;;;;;5024896;28;20043;-58
2022/09/08 00:57:42;;;;;;;4.45;1.40;;;23.00;63.60;;;;;;5025969;28;20025;-58
2022/09/08 01:00:09;;;;;;;5.60;1.40;;;23.00;63.70;;;;;;5043072;28;20395;-58
2022/09/08 01:02:35;;;;;;;5.80;1.60;;;23.00;63.70;;;;;;5044102;28;20508;-58
2022/09/08 01:05:11;;;;;;;4.30;1.40;;;23.00;63.70;;;;;;5045186;28;20032;-58
2022/09/08 01:13:31;;;;;;;5.50;1.42;;;23.00;63.80;;;;;;5026482;28;20044;-59
2022/09/08 01:15:57;;;;;;;5.22;1.40;;;23.00;63.80;;;;;;5027094;28;20493;-58
2022/09/08 01:18:23;;;;;;;5.30;1.70;;;23.00;63.80;;;;;;5041231;28;20025;-58
2022/09/08 01:21:01;;;;;;;5.38;1.70;;;22.90;63.80;;;;;;5026658;28;20051;-58
2022/09/08 01:24:09;;;;;;;6.68;1.58;;;23.00;63.80;;;;;;5023418;28;20028;-59
2022/09/08 01:26:49;;;;;;;5.82;1.52;;;22.90;63.80;;;;;;5032718;28;20400;-58
2022/09/08 01:29:15;;;;;;;4.90;1.40;;;22.90;63.80;;;;;;5047143;28;20037;-58
2022/09/08 01:31:42;;;;;;;5.20;1.40;;;22.90;63.80;;;;;;5030202;28;20033;-58
2022/09/08 01:34:07;;;;;;;6.43;1.75;;;22.90;63.80;;;;;;5031505;28;20036;-58
2022/09/08 01:36:33;;;;;;;4.70;1.45;;;22.90;63.90;;;;;;5030319;28;20389;-59
2022/09/08 01:38:59;;;;;;;7.38;1.60;;;22.90;63.90;;;;;;5048397;28;20023;-58
2022/09/08 01:41:24;;;;;;;4.95;1.20;;;22.90;63.90;;;;;;5044958;28;20041;-58
2022/09/08 01:43:50;;;;;;;4.93;1.20;;;22.90;63.90;;;;;;5046191;28;20025;-58
2022/09/08 01:46:16;;;;;;;4.53;1.33;;;22.90;63.90;;;;;;5047753;28;20037;-58
2022/09/08 01:48:41;;;;;;;6.45;1.60;;;22.90;63.90;;;;;;5048279;28;20017;-58
2022/09/08 01:51:07;;;;;;;3.42;1.17;;;22.90;63.90;;;;;;5049144;28;20090;-58
2022/09/08 01:53:33;;;;;;;4.50;1.40;;;22.90;63.90;;;;;;5044601;28;20124;-58
2022/09/08 01:55:59;;;;;;;2.90;1.15;;;22.90;63.90;;;;;;5048955;28;20072;-58
2022/09/08 01:58:25;;;;;;;4.03;1.23;;;22.80;63.90;;;;;;5047694;28;20056;-58
2022/09/08 02:00:51;;;;;;;5.10;1.30;;;22.90;64.00;;;;;;5042377;28;20037;-58
2022/09/08 02:03:17;;;;;;;7.28;1.80;;;22.80;64.00;;;;;;5046381;28;20044;-58
2022/09/08 02:05:44;;;;;;;3.17;1.38;;;22.80;64.00;;;;;;5045809;28;20072;-58
2022/09/08 02:08:10;;;;;;;5.68;1.60;;;22.80;64.00;;;;;;5049089;28;20572;-58
2022/09/08 02:10:35;;;;;;;5.20;1.20;;;22.80;63.90;;;;;;5044835;28;20025;-58
2022/09/08 02:13:02;;;;;;;4.45;1.45;;;22.80;64.00;;;;;;5045722;28;20067;-58
2022/09/08 02:15:27;;;;;;;5.13;1.13;;;22.80;64.00;;;;;;5047483;28;20037;-58
2022/09/08 02:17:53;;;;;;;5.40;1.20;;;22.80;64.00;;;;;;5046084;28;20036;-58
2022/09/08 02:20:20;;;;;;;5.00;1.55;;;22.80;64.00;;;;;;5045283;28;20611;-58
2022/09/08 02:22:46;;;;;;;4.50;1.30;;;22.80;64.00;;;;;;5046583;28;20103;-59
2022/09/08 02:25:12;;;;;;;5.00;1.30;;;22.80;64.00;;;;;;5051925;28;20115;-58
2022/09/08 02:27:37;;;;;;;4.90;1.13;;;22.80;64.00;;;;;;5046456;28;20052;-58
2022/09/08 02:30:03;;;;;;;4.55;1.38;;;22.80;64.10;;;;;;5045471;28;20124;-58
2022/09/08 02:32:29;;;;;;;4.70;1.42;;;22.80;65.10;;;;;;5029023;28;20057;-58
2022/09/08 02:34:55;;;;;;;6.30;1.30;;;22.70;64.00;;;;;;5044495;28;20098;-58
2022/09/08 02:37:20;;;;;;;5.32;1.50;;;22.80;64.10;;;;;;5046094;28;20430;-58
2022/09/08 02:39:47;;;;;;;3.70;1.42;;;22.80;64.10;;;;;;5048748;28;20448;-58
2022/09/08 02:42:12;;;;;;;4.65;1.30;;;22.80;64.10;;;;;;5045886;28;20029;-58
2022/09/08 02:44:38;;;;;;;4.80;1.25;;;22.70;64.10;;;;;;5044097;28;20029;-58
2022/09/08 02:47:05;;;;;;;4.07;1.20;;;22.70;64.10;;;;;;5046648;28;20037;-58
2022/09/08 02:49:31;;;;;;;4.13;1.30;;;22.70;64.10;;;;;;5045705;28;20048;-58
2022/09/08 02:51:58;;;;;;;5.95;1.30;;;22.70;64.10;;;;;;5047972;28;20043;-58
2022/09/08 02:54:23;;;;;;;6.38;1.50;;;22.70;64.10;;;;;;5046765;28;20037;-58
2022/09/08 02:56:49;;;;;;;4.65;1.20;;;22.70;64.10;;;;;;5046936;28;20021;-58
2022/09/08 02:59:15;;;;;;;4.85;1.38;;;22.60;64.00;;;;;;5048059;28;20112;-58
2022/09/08 03:01:43;;;;;;;3.83;1.20;;;22.60;64.10;;;;;;5045645;28;20052;-58
2022/09/08 03:04:09;;;;;;;4.55;1.13;;;22.60;64.10;;;;;;5046332;28;20033;-58
2022/09/08 03:06:35;;;;;;;3.72;0.93;;;22.60;65.10;;;;;;5046252;28;20032;-58
2022/09/08 03:09:00;;;;;;;5.28;1.20;;;22.60;64.10;;;;;;5045871;28;20029;-58
2022/09/08 03:11:26;;;;;;;4.78;1.25;;;22.60;64.10;;;;;;5044315;28;20029;-58
2022/09/08 03:13:52;;;;;;;6.10;1.40;;;22.60;64.10;;;;;;5027583;28;20034;-58
2022/09/08 03:16:18;;;;;;;5.20;1.35;;;22.70;64.20;;;;;;5044860;28;20501;-58
2022/09/08 03:18:43;;;;;;;4.95;1.30;;;22.60;64.10;;;;;;5045323;28;22011;-58
2022/09/08 03:21:10;;;;;;;5.40;1.40;;;22.60;64.10;;;;;;5046110;28;20037;-58
2022/09/08 03:23:36;;;;;;;3.90;1.27;;;22.60;64.10;;;;;;5045863;28;20145;-58
2022/09/08 03:26:06;;;;;;;3.53;1.40;;;22.60;64.10;;;;;;5044785;28;20120;-58
2022/09/08 03:28:32;;;;;;;4.03;1.20;;;22.60;64.20;;;;;;5044153;28;20025;-58
2022/09/08 03:30:58;;;;;;;3.72;1.00;;;22.60;64.20;;;;;;5046219;28;20040;-58
2022/09/08 03:33:23;;;;;;;5.18;1.27;;;22.50;64.10;;;;;;5047237;28;20025;-58
2022/09/08 03:35:49;;;;;;;3.17;0.98;;;22.50;64.20;;;;;;5042845;28;20167;-58
2022/09/08 03:38:17;;;;;;;3.55;1.10;;;22.60;64.20;;;;;;5046260;28;20112;-59
2022/09/08 03:40:43;;;;;;;5.95;1.35;;;22.50;64.20;;;;;;5046624;28;20041;-58
2022/09/08 03:43:08;;;;;;;5.40;1.38;;;22.60;64.30;;;;;;5045872;28;20020;-58
2022/09/08 03:45:34;;;;;;;5.18;1.55;;;22.50;64.20;;;;;;5045843;28;20103;-58
2022/09/08 03:48:00;;;;;;;3.20;1.10;;;22.50;64.20;;;;;;5045056;28;20053;-58
2022/09/08 03:50:25;;;;;;;4.72;1.30;;;22.50;64.20;;;;;;5043549;28;20540;-58
2022/09/08 03:52:51;;;;;;;4.97;1.27;;;22.60;64.30;;;;;;5046161;28;20103;-58
2022/09/08 03:55:17;;;;;;;5.18;1.40;;;22.50;64.20;;;;;;5045267;28;20060;-58
2022/09/08 03:57:43;;;;;;;5.15;1.10;;;22.50;64.30;;;;;;5043017;28;20091;-58
2022/09/08 04:00:09;;;;;;;4.00;1.40;;;22.50;64.30;;;;;;5044823;28;20037;-58
2022/09/08 04:02:35;;;;;;;3.83;1.15;;;22.50;64.30;;;;;;5045634;28;20074;-58
2022/09/08 04:05:01;;;;;;;4.30;1.40;;;22.50;64.30;;;;;;5045709;28;20036;-58
2022/09/08 04:07:30;;;;;;;4.75;1.30;;;22.50;64.30;;;;;;5044496;28;20420;-58
2022/09/08 04:09:56;;;;;;;4.45;1.10;;;22.50;64.30;;;;;;5044771;28;20493;-58
2022/09/08 04:12:23;;;;;;;4.75;1.30;;;22.50;64.30;;;;;;5041388;28;20466;-58
2022/09/08 04:14:48;;;;;;;5.18;1.38;;;22.50;64.40;;;;;;5042812;28;20040;-58
2022/09/08 04:17:15;;;;;;;4.65;1.48;;;22.50;64.40;;;;;;5038779;28;20029;-58
2022/09/08 04:19:41;;;;;;;5.78;1.25;;;22.50;64.40;;;;;;5041925;28;20405;-58
2022/09/08 04:22:06;;;;;;;4.90;1.48;;;22.50;64.40;;;;;;5040267;28;20041;-57
2022/09/08 04:24:32;;;;;;;4.15;1.13;;;22.50;64.40;;;;;;5042722;28;20029;-58
2022/09/08 04:26:58;;;;;;;3.35;1.00;;;22.50;64.40;;;;;;5042928;28;20780;-58
2022/09/08 04:29:24;;;;;;;3.08;1.10;;;22.50;64.40;;;;;;5043159;28;20040;-58
2022/09/08 04:31:50;;;;;;;4.97;1.52;;;22.50;64.40;;;;;;5045686;28;20041;-58
2022/09/08 04:34:15;;;;;;;3.50;1.17;;;22.50;64.50;;;;;;5044268;28;20017;-58
2022/09/08 04:36:42;;;;;;;3.40;1.17;;;22.50;64.50;;;;;;5042038;28;20151;-58
2022/09/08 04:39:12;;;;;;;3.92;1.02;;;22.40;64.40;;;;;;5043494;28;20029;-58
2022/09/08 04:41:38;;;;;;;5.40;1.50;;;22.40;64.40;;;;;;5043118;28;20025;-58
2022/09/08 04:44:04;;;;;;;3.05;1.00;;;22.40;64.50;;;;;;5043973;28;20036;-59
2022/09/08 04:46:32;;;;;;;4.50;1.20;;;22.40;64.50;;;;;;5044875;28;20049;-58
2022/09/08 04:48:57;;;;;;;4.65;1.20;;;22.40;64.40;;;;;;5044140;28;20037;-58
2022/09/08 04:51:23;;;;;;;5.07;1.23;;;22.40;64.50;;;;;;5043138;28;20063;-58
2022/09/08 04:53:52;;;;;;;4.65;1.23;;;22.40;64.50;;;;;;5044583;28;20765;-58
2022/09/08 04:56:18;;;;;;;2.83;0.93;;;22.40;64.50;;;;;;5043712;28;20021;-58
2022/09/08 04:58:45;;;;;;;3.15;1.30;;;22.40;64.50;;;;;;5042581;28;20057;-58
2022/09/08 05:01:18;;;;;;;3.25;1.00;;;22.40;64.50;;;;;;5028541;28;20037;-58
2022/09/08 05:03:43;;;;;;;3.55;1.10;;;22.40;64.50;;;;;;5044668;28;20017;-58
2022/09/08 05:06:13;;;;;;;3.30;1.00;;;22.40;64.50;;;;;;5044444;28;20508;-58
2022/09/08 05:08:41;;;;;;;2.42;0.80;;;22.40;64.50;;;;;;5043876;28;20831;-58
2022/09/08 05:11:07;;;;;;;3.88;1.23;;;22.40;64.50;;;;;;5041360;28;20041;-58
2022/09/08 05:13:32;;;;;;;3.50;0.85;;;22.40;64.50;;;;;;5044397;28;20090;-58
2022/09/08 05:16:06;;;;;;;4.03;1.27;;;22.40;64.60;;;;;;5038797;28;20047;-58
2022/09/08 05:18:31;;;;;;;4.28;0.95;;;22.40;64.60;;;;;;5043295;28;20021;-58
2022/09/08 05:20:57;;;;;;;3.97;1.10;;;22.40;64.60;;;;;;5042162;28;20032;-59
2022/09/08 05:23:23;;;;;;;6.03;1.63;;;22.40;64.60;;;;;;5043586;28;20017;-58
2022/09/08 05:25:56;;;;;;;4.70;1.25;;;22.40;64.80;;;;;;5043859;28;20047;-58
2022/09/08 05:28:23;;;;;;;4.05;1.20;;;22.40;64.90;;;;;;5043294;28;20041;-58
2022/09/08 05:30:49;;;;;;;3.88;0.88;;;22.40;64.80;;;;;;5041742;28;20435;-58
2022/09/08 05:33:15;;;;;;;5.80;1.30;;;22.40;65.10;;;;;;5044609;28;20029;-58
2022/09/08 05:35:40;;;;;;;2.28;1.02;;;22.40;65.10;;;;;;5039940;28;20101;-59
2022/09/08 05:38:06;;;;;;;6.28;1.52;;;22.40;65.10;;;;;;5038285;28;20178;-58
2022/09/08 05:40:35;;;;;;;5.15;1.40;;;22.40;65.00;;;;;;5048989;28;20079;-58
2022/09/08 05:43:00;;;;;;;5.40;1.30;;;22.40;65.00;;;;;;5045978;28;20033;-58
2022/09/08 05:45:26;;;;;;;5.13;1.50;;;22.40;65.00;;;;;;5045687;28;20022;-58
2022/09/08 05:47:52;;;;;;;8.88;1.33;;;22.40;65.10;;;;;;5041502;28;20055;-58
2022/09/08 05:50:18;;;;;;;3.88;1.23;;;22.40;65.10;;;;;;5043454;28;20409;-58
2022/09/08 05:52:43;;;;;;;9.70;1.40;;;22.40;65.30;;;;;;5041495;28;20998;-58
2022/09/08 05:55:09;;;;;;;7.53;1.40;;;22.40;65.20;;;;;;5043264;28;20028;-58
2022/09/08 05:57:35;;;;;;;4.43;1.35;;;22.30;65.40;;;;;;5042278;28;20484;-58
2022/09/08 06:00:02;;;;;;;3.80;1.17;;;22.40;65.30;;;;;;5042166;28;20052;-58
2022/09/08 06:02:28;;;;;;;5.55;1.58;;;22.30;65.20;;;;;;5044659;28;20025;-58
2022/09/08 06:04:55;;;;;;;5.57;1.25;;;22.30;65.20;;;;;;5041888;28;20071;-57
2022/09/08 06:07:20;;;;;;;5.90;1.33;;;22.30;65.20;;;;;;5042364;28;20060;-58
2022/09/08 06:09:46;;;;;;;6.38;1.35;;;22.30;65.30;;;;;;5041350;28;20061;-58
2022/09/08 06:12:12;;;;;;;4.50;1.20;;;22.30;65.20;;;;;;5044487;28;20036;-58
2022/09/08 06:14:37;;;;;;;7.22;1.40;;;22.30;65.30;;;;;;5047485;28;20078;-58
2022/09/08 06:17:03;;;;;;;7.28;1.60;;;22.30;65.30;;;;;;5046478;28;20029;-58
2022/09/08 06:19:29;;;;;;;7.45;1.50;;;22.30;65.30;;;;;;5045956;28;20049;-57
2022/09/08 06:21:55;;;;;;;4.70;1.35;;;22.30;65.20;;;;;;5045953;28;20025;-58
2022/09/08 06:24:20;;;;;;;5.90;1.45;;;22.30;65.30;;;;;;5045494;28;20033;-58
2022/09/08 06:26:55;;;;;;;5.90;1.40;;;22.30;65.30;;;;;;5046156;28;20036;-58
2022/09/08 06:29:37;;;;;;;7.88;1.55;;;22.30;65.40;;;;;;5045638;28;20378;-58
2022/09/08 06:32:13;;;;;;;7.00;1.60;;;22.30;65.20;;;;;;5044633;28;20441;-58
2022/09/08 06:34:45;;;;;;;5.68;1.33;;;22.30;65.30;;;;;;5029963;28;20082;-58
2022/09/08 06:37:15;;;;;;;8.30;1.40;;;22.30;65.40;;;;;;5029294;28;20550;-58
2022/09/08 06:39:47;;;;;;;5.43;1.27;;;22.30;65.50;;;;;;5029514;28;20052;-58
2022/09/08 06:42:19;;;;;;;9.23;2.00;;;22.30;65.50;;;;;;5024150;28;20111;-58
2022/09/08 06:44:45;;;;;;;6.25;1.50;;;22.30;65.40;;;;;;5026747;28;20036;-58
2022/09/08 06:47:18;;;;;;;5.88;1.40;;;22.20;65.40;;;;;;5011292;28;20112;-58
2022/09/08 06:49:44;;;;;;;6.93;1.35;;;22.20;65.30;;;;;;5046744;28;20516;-58
2022/09/08 06:52:41;;;;;;;3.45;1.15;;;22.20;65.30;;;;;;5046276;28;20028;-58
2022/09/08 06:55:15;;;;;;;6.10;1.30;;;22.20;65.40;;;;;;5032948;28;20642;-58
2022/09/08 06:58:05;;;;;;;6.90;1.50;;;22.20;65.50;;;;;;5046157;28;20021;-58
2022/09/08 07:00:44;;;;;;;4.70;1.40;;;22.20;65.40;;;;;;5045977;28;20087;-58
2022/09/08 07:03:18;;;;;;;5.88;1.45;;;22.20;65.40;;;;;;5013772;28;20032;-59
2022/09/08 07:06:01;;;;;;;4.78;1.23;;;22.20;65.40;;;;;;5027511;28;20052;-58
2022/09/08 07:08:39;;;;;;;8.05;1.73;;;22.20;65.40;;;;;;5046506;28;20760;-58
2022/09/08 07:11:32;;;;;;;7.25;1.30;;;22.20;65.50;;;;;;5048115;28;20524;-58
2022/09/08 07:14:40;;;;;;;4.90;1.10;;;22.20;66.50;;;;;;4964965;28;20034;-58
2022/09/08 07:17:32;;;;;;;5.95;1.55;;;22.20;65.40;;;;;;4947834;28;20143;-58
2022/09/08 07:19:58;;;;;;;5.25;1.42;;;22.20;65.50;;;;;;4966832;28;20066;-57
2022/09/08 07:22:31;;;;;;;5.40;1.50;;;22.20;65.50;;;;;;4967835;28;20027;-58
2022/09/08 07:25:14;;;;;;;5.85;1.45;;;22.20;65.50;;;;;;4965474;28;20078;-57
2022/09/08 07:27:40;;;;;;;6.97;1.50;;;22.20;65.50;;;;;;4952767;28;20030;-58
2022/09/08 07:30:15;;;;;;;6.00;1.30;;;22.20;65.50;;;;;;4955356;28;20725;-58
2022/09/08 07:32:42;;;;;;;4.70;1.33;;;22.20;65.50;;;;;;4965256;28;20039;-57
2022/09/08 07:35:51;;;;;;;5.43;1.42;;;22.10;65.40;;;;;;4948281;28;20031;-57
2022/09/08 07:38:27;;;;;;;5.38;1.30;;;22.20;65.50;;;;;;4950457;28;20507;-57
2022/09/08 07:40:53;;;;;;;4.65;1.05;;;22.10;65.50;;;;;;4945569;28;20031;-57
2022/09/08 07:43:19;;;;;;;4.75;1.40;;;22.10;65.50;;;;;;4962239;28;20038;-57
2022/09/08 07:45:56;;;;;;;8.10;1.20;;;22.10;65.50;;;;;;4965826;28;20042;-58
2022/09/08 07:49:06;;;;;;;5.10;1.20;;;22.10;65.50;;;;;;4960753;28;20472;-58
2022/09/08 07:51:36;;;;;;;5.07;1.40;;;22.20;65.60;;;;;;5012835;28;20104;-58
2022/09/08 07:54:20;;;;;;;5.25;1.35;;;22.20;65.60;;;;;;5044487;28;20366;-57
2022/09/08 07:56:58;;;;;;;4.50;1.23;;;22.20;65.50;;;;;;5045875;28;20029;-58
2022/09/08 07:59:36;;;;;;;4.40;1.20;;;22.20;65.50;;;;;;5011445;28;20416;-57
2022/09/08 08:02:20;;;;;;;4.38;1.17;;;22.20;65.70;;;;;;5044537;28;20032;-58
2022/09/08 08:05:07;;;;;;;4.47;1.20;;;22.20;65.60;;;;;;5043114;28;20516;-57
2022/09/08 08:07:35;;;;;;;6.93;1.38;;;22.20;65.60;;;;;;5046098;28;20033;-57
2022/09/08 08:10:26;;;;;;;6.50;1.33;;;22.20;65.60;;;;;;5044157;28;20116;-57
2022/09/08 08:13:06;;;;;;;5.78;1.23;;;22.20;65.50;;;;;;5045376;28;20102;-57
2022/09/08 08:15:37;;;;;;;5.43;1.30;;;22.30;66.00;;;;;;5046473;28;20025;-57
2022/09/08 08:18:22;;;;;;;6.47;1.42;;;22.20;65.70;;;;;;5043281;28;20147;-57
2022/09/08 08:21:10;;;;;;;5.00;1.10;;;22.20;65.80;;;;;;5045377;28;20037;-57
2022/09/08 08:24:05;;;;;;;5.25;1.50;;;22.20;65.70;;;;;;5044614;28;20143;-57
2022/09/08 08:26:51;;;;;;;3.17;1.00;;;22.20;65.70;;;;;;5031636;28;20029;-57
2022/09/08 08:29:39;;;;;;;9.52;1.52;;;22.30;66.00;;;;;;5043989;28;20135;-57
2022/09/08 08:32:12;;;;;;;4.93;1.33;;;22.20;65.80;;;;;;5024976;28;20386;-57
2022/09/08 08:34:47;;;;;;;3.88;1.10;;;22.20;65.60;;;;;;5026029;28;20383;-57
2022/09/08 08:37:20;;;;;;;4.35;1.13;;;22.30;65.90;;;;;;5024709;28;20028;-57
2022/09/08 08:39:47;;;;;;;4.47;1.20;;;22.30;65.90;;;;;;5004071;28;20064;-57
2022/09/08 08:42:41;;;;;;;4.80;1.23;;;22.30;66.00;;;;;;5021901;28;20087;-57
2022/09/08 08:45:27;;;;;;;4.73;1.20;;;22.30;66.10;;;;;;5044781;28;20017;-58
2022/09/08 08:47:59;;;;;;;7.85;1.58;;;22.30;66.10;;;;;;5026727;28;20485;-58
2022/09/08 08:50:46;;;;;;;5.47;1.10;;;22.30;66.10;;;;;;5023835;28;20037;-58
2022/09/08 08:53:27;;;;;;;5.10;1.20;;;22.30;66.00;;;;;;5042867;28;20491;-57
2022/09/08 08:56:10;;;;;;;6.13;1.35;;;22.30;65.90;;;;;;5044045;28;20052;-57
2022/09/08 08:58:55;;;;;;;5.55;1.40;;;22.40;66.10;;;;;;5042746;28;20025;-57
2022/09/08 09:01:29;;;;;;;6.15;1.33;;;22.30;66.00;;;;;;5043400;28;20040;-57
2022/09/08 09:03:55;;;;;;;;;;;22.30;65.80;;;;;;5026629;28;20025;-57
2022/09/08 09:06:44;;;;;;;6.50;1.15;;;22.30;66.00;;;;;;5044269;28;20619;-57
2022/09/08 09:09:52;;;;;;;6.25;1.65;;;22.30;66.00;;;;;;5042980;28;20017;-57
2022/09/08 09:12:31;;;;;;;6.45;1.58;;;22.30;66.00;;;;;;5035026;28;20067;-57
2022/09/08 09:15:06;;;;;;;8.52;1.45;;;22.30;66.00;;;;;;5024588;28;20389;-57
2022/09/08 09:17:53;;;;;;;5.93;1.48;;;22.30;66.10;;;;;;5043530;28;20057;-58
2022/09/08 09:20:33;;;;;;;6.18;1.50;;;22.30;66.10;;;;;;5027595;28;20128;-57
2022/09/08 09:23:34;;;;;;;6.38;1.70;;;22.30;66.10;;;;;;5039175;28;20025;-58
2022/09/08 09:26:19;;;;;;;7.40;1.38;;;22.30;66.20;;;;;;5028500;28;20017;-57
2022/09/08 09:29:24;;;;;;;10.55;1.77;;;22.30;66.20;;;;;;5028919;28;20040;-57
2022/09/08 09:32:08;;;;;;;6.05;1.33;;;22.40;66.30;;;;;;5041454;28;20413;-57
2022/09/08 09:35:13;;;;;;;6.10;1.60;;;22.40;66.20;;;;;;5043568;28;20091;-57
2022/09/08 09:37:58;;;;;;;5.43;1.30;;;22.30;66.10;;;;;;5014011;28;20036;-57
2022/09/08 09:40:53;;;;;;;6.38;1.42;;;22.40;66.10;;;;;;5007253;28;20287;-57
2022/09/08 09:43:34;;;;;;;5.63;1.33;;;22.40;66.20;;;;;;5009439;28;20138;-57
2022/09/08 09:46:09;;;;;;;5.20;1.40;;;22.40;66.20;;;;;;5046717;28;20021;-57
2022/09/08 09:48:37;;;;;;;;;;;22.40;66.20;;;;;;5046498;28;20021;-57
2022/09/08 09:51:13;;;;;;;7.85;1.60;;;22.40;66.20;;;;;;5044409;28;19920;-58
2022/09/08 09:54:00;;;;;;;4.95;1.10;;;22.50;66.20;;;;;;5046172;28;20032;-57
2022/09/08 09:56:57;;;;;;;4.78;1.40;;;22.40;66.20;;;;;;5027362;28;20397;-57
2022/09/08 09:59:48;;;;;;;5.93;1.40;;;22.40;66.20;;;;;;5046769;28;20114;-57
2022/09/08 10:02:49;;;;;;;5.18;1.48;;;22.40;66.20;;;;;;5043882;28;20037;-57
2022/09/08 10:05:30;;;;;;;7.18;1.50;;;22.40;66.20;;;;;;5046170;28;20511;-57
2022/09/08 10:08:14;;;;;;;4.43;1.38;;;22.40;66.30;;;;;;5047636;28;20037;-57
2022/09/08 10:11:05;;;;;;;7.33;1.43;;;22.40;66.20;;;;;;5046547;28;20073;-57
2022/09/08 10:13:45;;;;;;;5.70;1.50;;;22.50;66.10;;;;;;5030720;28;20391;-57
2022/09/08 10:16:23;;;;;;;4.28;1.38;;;22.50;66.10;;;;;;5028732;28;20032;-57
2022/09/08 10:19:16;;;;;;;7.05;1.77;;;22.50;66.10;;;;;;5049053;28;20128;-57
2022/09/08 10:22:03;;;;;;;4.43;1.30;;;22.50;66.10;;;;;;4968562;28;20031;-57
2022/09/08 10:25:03;;;;;;;5.25;1.25;;;22.50;66.10;;;;;;4983028;28;20034;-58
2022/09/08 10:27:57;;;;;;;8.82;1.42;;;22.50;66.00;;;;;;4927579;29;20685;-58
2022/09/08 10:31:04;;;;;;;4.80;1.35;;;22.50;65.90;;;;;;4928631;29;20059;-57
2022/09/08 10:33:54;;;;;;;5.25;1.38;;;22.60;65.90;;;;;;4927514;29;20505;-57
2022/09/08 10:36:22;;;;;;;3.55;1.23;;;22.60;65.90;;;;;;4926221;29;20087;-57
2022/09/08 10:39:06;;;;;;;5.03;1.40;;;22.60;66.10;;;;;;4914357;29;20027;-57
2022/09/08 10:42:23;;;;;;;4.70;1.25;;;22.60;66.00;;;;;;4912620;29;20396;-57
2022/09/08 10:45:00;;;;;;;5.28;1.33;;;22.50;65.80;;;;;;4905991;29;20036;-57
2022/09/08 10:47:31;;;;;;;4.60;1.40;;;22.60;65.90;;;;;;4908927;29;20056;-57
2022/09/08 10:50:17;;;;;;;5.32;1.50;;;22.50;65.90;;;;;;4909691;29;20047;-57
2022/09/08 10:53:19;;;;;;;5.85;1.40;;;22.60;66.10;;;;;;4909013;29;20040;-57
2022/09/08 10:56:12;;;;;;;5.13;1.48;;;22.60;66.10;;;;;;4909478;29;20193;-57
2022/09/08 10:58:38;;;;;;;7.63;1.75;;;22.60;66.10;;;;;;4915432;29;20054;-57
2022/09/08 11:01:31;;;;;;;5.28;1.42;;;22.60;66.00;;;;;;4928828;29;20036;-57
2022/09/08 11:04:18;;;;;;;6.28;1.60;;;22.60;66.20;;;;;;4977598;28;20081;-57
2022/09/08 11:07:11;;;;;;;5.03;1.30;;;22.60;65.90;;;;;;4983118;28;20045;-57
2022/09/08 11:10:11;;;;;;;4.47;1.27;;;22.70;66.30;;;;;;4983811;28;20042;-57
2022/09/08 11:13:02;;;;;;;4.93;1.42;;;22.70;66.20;;;;;;4984202;28;20038;-57
2022/09/08 11:15:39;;;;;;;5.82;1.60;;;22.70;66.20;;;;;;4978267;28;20034;-57
2022/09/08 11:18:17;;;;;;;5.72;1.50;;;22.70;66.20;;;;;;4984351;28;20038;-57
2022/09/08 11:20:53;;;;;;;7.30;1.85;;;22.80;66.20;;;;;;5029476;28;20690;-57
2022/09/08 11:23:43;;;;;;;4.95;1.42;;;22.80;66.10;;;;;;5027527;28;20025;-58
2022/09/08 11:26:22;;;;;;;3.83;1.20;;;22.80;66.10;;;;;;5047477;28;20032;-57
2022/09/08 11:29:09;;;;;;;4.65;1.25;;;22.80;65.80;;;;;;5019292;28;20025;-57
2022/09/08 11:31:49;;;;;;;4.55;1.17;;;22.80;66.20;;;;;;5044342;28;20041;-57
2022/09/08 11:34:21;;;;;;;4.63;1.40;;;22.80;66.10;;;;;;5044515;28;20220;-57
2022/09/08 11:36:46;;;;;;;5.43;1.33;;;22.80;66.20;;;;;;5043974;28;20028;-57
2022/09/08 11:39:21;;;;;;;4.85;1.58;;;22.80;66.10;;;;;;5044602;28;20405;-57
2022/09/08 11:41:54;;;;;;;3.92;1.27;;;22.80;66.20;;;;;;5043869;28;20045;-57
2022/09/08 11:44:39;;;;;;;4.25;1.50;;;22.80;66.10;;;;;;5027276;28;20512;-57
2022/09/08 11:47:23;;;;;;;7.63;1.13;;;22.90;66.00;;;;;;5028566;28;20428;-57
2022/09/08 11:50:00;;;;;;;5.93;1.30;;;22.90;66.00;;;;;;5047157;28;20028;-57
2022/09/08 11:52:48;;;;;;;5.20;1.38;;;22.90;66.10;;;;;;5030339;28;20477;-57
2022/09/08 11:55:33;;;;;;;3.83;1.40;;;22.90;65.80;;;;;;4985329;28;20042;-57
2022/09/08 11:58:07;;;;;;;3.97;1.25;;;23.00;65.90;;;;;;4986401;28;20062;-57
2022/09/08 12:00:42;;;;;;;3.00;1.10;;;23.00;66.00;;;;;;4968902;28;20128;-57
2022/09/08 12:03:26;;;;;;;;;;;23.00;65.60;;;;;;4986725;28;20517;-57
2022/09/08 12:06:13;;;;;;;3.03;1.20;;;23.10;65.70;;;;;;4986125;28;19973;-58
2022/09/08 12:09:21;;;;;;;4.00;1.30;;;23.10;66.00;;;;;;4985211;28;20034;-57
2022/09/08 12:12:34;;;;;;;3.90;1.25;;;23.10;65.70;;;;;;4944717;28;20499;-57
2022/09/08 12:15:05;;;;;;;5.13;1.35;;;23.10;65.80;;;;;;4938101;28;20043;-57
2022/09/08 12:18:04;;;;;;;5.13;1.17;;;23.20;65.70;;;;;;4941645;28;20028;-57
2022/09/08 12:20:46;;;;;;;4.50;1.35;;;23.10;65.70;;;;;;4958446;28;20058;-57
2022/09/08 12:23:47;;;;;;;6.00;1.45;;;23.20;65.60;;;;;;4959496;28;20055;-57
2022/09/08 12:26:24;;;;;;;4.15;1.20;;;23.10;65.30;;;;;;4899413;29;20044;-57
2022/09/08 12:29:16;;;;;;;5.80;1.40;;;23.20;65.50;;;;;;4900242;29;20750;-57
2022/09/08 12:32:12;;;;;;;5.03;1.20;;;23.20;65.30;;;;;;4905522;29;20043;-57
2022/09/08 12:34:40;;;;;;;5.22;1.50;;;23.30;65.50;;;;;;4918932;29;20552;-57
2022/09/08 12:37:22;;;;;;;4.28;1.20;;;23.30;65.20;;;;;;4919071;29;20039;-57
2022/09/08 12:40:07;;;;;;;5.43;1.58;;;23.30;65.20;;;;;;4903831;29;20052;-57
2022/09/08 12:42:55;;;;;;;2.90;1.05;;;23.30;65.10;;;;;;4918415;29;20031;-57
2022/09/08 12:45:27;;;;;;;3.88;1.20;;;23.40;65.00;;;;;;4925811;28;20039;-57
2022/09/08 12:48:07;;;;;;;4.53;1.23;;;23.50;64.80;;;;;;4927807;28;20067;-57
2022/09/08 12:51:06;;;;;;;5.43;1.20;;;23.50;64.70;;;;;;4943462;28;20051;-57
2022/09/08 12:53:57;;;;;;;5.55;1.38;;;23.60;64.70;;;;;;4945233;28;20475;-57
2022/09/08 12:56:43;;;;;;;3.92;1.15;;;23.60;64.40;;;;;;4930768;28;20039;-57
2022/09/08 12:59:23;;;;;;;2.75;1.13;;;23.70;64.40;;;;;;4929352;28;20035;-57
2022/09/08 13:02:19;;;;;;;6.38;1.50;;;23.80;64.40;;;;;;4944639;28;20051;-57
2022/09/08 13:05:12;;;;;;;4.85;1.33;;;23.80;64.10;;;;;;5046613;28;20410;-57
2022/09/08 13:08:25;;;;;;;4.47;1.30;;;23.80;64.10;;;;;;5022623;28;20041;-57
2022/09/08 13:10:53;;;;;;;4.72;1.38;;;23.80;63.90;;;;;;4983470;28;20525;-57
2022/09/08 13:13:41;;;;;;;4.05;1.08;;;23.90;63.90;;;;;;4985231;28;20594;-57
2022/09/08 13:16:07;;;;;;;4.10;1.20;;;23.90;63.90;;;;;;4984436;28;20558;-57
2022/09/08 13:18:45;;;;;;;3.60;1.20;;;24.00;63.60;;;;;;4985615;28;20077;-57
2022/09/08 13:21:19;;;;;;;4.05;1.40;;;24.00;63.60;;;;;;4989202;28;20073;-57
2022/09/08 13:23:50;;;;;;;4.05;1.20;;;24.00;63.60;;;;;;4973479;28;20022;-57
2022/09/08 13:26:38;;;;;;;4.30;1.40;;;24.10;63.50;;;;;;4989051;28;20523;-57
2022/09/08 13:29:45;;;;;;;4.80;1.17;;;24.10;63.20;;;;;;4974076;28;20071;-58
2022/09/08 13:32:38;;;;;;;3.22;1.17;;;24.10;63.70;;;;;;4985387;28;20053;-57
2022/09/08 13:35:34;;;;;;;7.30;1.52;;;24.00;63.60;;;;;;4989367;28;20046;-57